Time;durP1;ratioP1;P1;durP2;ratioP2;P2;SDS_P1;SDS_P2;PMS_P1;PMS_P2;Temp;Humidity;BMP_temperature;BMP_pressure;BME280_temperature;BME280_humidity;BME280_pressure;Samples;Min_cycle;Max_cycle;Signal;HPM_P1;HPM_P2
2023/08/01 00:01:52;;;;;;;4.23;3.83;;;18.90;99.90;;;;;;5113874;28;20201;-71
2023/08/01 00:04:19;;;;;;;4.00;3.60;;;19.00;99.90;;;;;;5124524;27;20375;-72
2023/08/01 00:06:46;;;;;;;3.70;3.40;;;18.90;99.90;;;;;;5127774;27;20258;-71
2023/08/01 00:09:13;;;;;;;3.50;3.20;;;18.80;99.90;;;;;;5115448;27;20222;-71
2023/08/01 00:11:40;;;;;;;3.73;3.43;;;18.80;99.90;;;;;;5114065;27;20284;-71
2023/08/01 00:14:08;;;;;;;4.17;3.40;;;18.60;99.90;;;;;;5149323;27;20302;-71
2023/08/01 00:16:35;;;;;;;3.30;3.00;;;18.50;99.90;;;;;;5136213;27;20205;-71
2023/08/01 00:19:02;;;;;;;3.93;3.37;;;18.30;99.90;;;;;;5132563;27;20323;-71
2023/08/01 00:21:31;;;;;;;4.87;3.37;;;18.20;99.90;;;;;;5122801;27;20292;-71
2023/08/01 00:23:58;;;;;;;5.73;3.40;;;18.20;99.90;;;;;;5108058;27;20203;-71
2023/08/01 00:26:25;;;;;;;3.20;2.90;;;18.10;99.90;;;;;;5107994;28;20317;-71
2023/08/01 00:28:52;;;;;;;5.60;3.13;;;18.10;99.90;;;;;;5108269;28;20340;-71
2023/08/01 00:31:20;;;;;;;3.07;2.87;;;18.10;99.90;;;;;;5112302;27;20201;-71
2023/08/01 00:33:47;;;;;;;4.30;3.30;;;18.10;99.90;;;;;;5110775;27;20205;-71
2023/08/01 00:36:14;;;;;;;4.20;3.63;;;18.00;99.90;;;;;;5107976;28;20301;-71
2023/08/01 00:38:43;;;;;;;3.50;3.20;;;18.00;99.90;;;;;;5107648;28;20309;-71
2023/08/01 00:41:10;;;;;;;6.23;2.90;;;18.10;99.90;;;;;;5107335;28;20209;-71
2023/08/01 00:43:36;;;;;;;3.17;2.80;;;18.20;99.90;;;;;;5123413;27;20288;-71
2023/08/01 00:46:06;;;;;;;3.27;2.77;;;18.20;99.90;;;;;;5135153;27;20682;-71
2023/08/01 00:48:35;;;;;;;3.10;2.80;;;18.00;99.90;;;;;;5148280;27;20232;-71
2023/08/01 00:51:05;;;;;;;3.70;2.67;;;17.80;99.90;;;;;;5127593;27;20308;-71
2023/08/01 00:53:33;;;;;;;3.43;2.47;;;17.80;99.90;;;;;;5121764;27;20695;-71
2023/08/01 00:56:01;;;;;;;3.13;2.93;;;17.90;99.90;;;;;;5127516;27;20830;-71
2023/08/01 00:58:28;;;;;;;2.90;2.67;;;17.90;99.90;;;;;;5127538;27;20668;-71
2023/08/01 01:00:56;;;;;;;3.20;2.90;;;17.80;99.90;;;;;;5127959;27;20189;-71
2023/08/01 01:03:24;;;;;;;3.07;2.80;;;17.70;99.90;;;;;;5127896;27;20209;-72
2023/08/01 01:06:02;;;;;;;3.13;2.50;;;17.70;99.90;;;;;;5127211;27;20973;-71
2023/08/01 01:08:30;;;;;;;3.37;2.97;;;17.70;99.90;;;;;;5127328;27;20217;-72
2023/08/01 01:10:58;;;;;;;3.33;2.80;;;17.70;99.90;;;;;;5127438;27;20201;-71
2023/08/01 01:13:25;;;;;;;3.03;2.67;;;17.70;99.90;;;;;;5115784;27;20238;-70
2023/08/01 01:15:52;;;;;;;3.47;2.93;;;17.60;99.90;;;;;;5106499;28;20195;-70
2023/08/01 01:18:19;;;;;;;4.40;2.87;;;17.60;99.90;;;;;;5105632;28;20668;-71
2023/08/01 01:20:47;;;;;;;3.53;3.00;;;17.60;99.90;;;;;;5106958;28;20577;-71
2023/08/01 01:23:14;;;;;;;3.03;2.80;;;17.60;99.90;;;;;;5125000;27;20239;-71
2023/08/01 01:25:43;;;;;;;4.10;3.27;;;17.60;99.90;;;;;;5127172;27;20209;-71
2023/08/01 01:28:12;;;;;;;3.73;3.17;;;17.70;99.90;;;;;;5127249;27;20221;-71
2023/08/01 01:30:39;;;;;;;2.80;2.60;;;17.70;99.90;;;;;;5127268;27;20687;-71
2023/08/01 01:33:08;;;;;;;3.80;2.67;;;17.80;99.90;;;;;;5126342;27;20301;-71
2023/08/01 01:35:35;;;;;;;3.30;3.00;;;17.70;99.90;;;;;;5110230;27;20202;-72
2023/08/01 01:38:04;;;;;;;3.47;2.87;;;17.60;99.90;;;;;;5106456;28;20202;-72
2023/08/01 01:40:32;;;;;;;4.43;3.07;;;17.60;99.90;;;;;;5106667;28;20206;-71
2023/08/01 01:42:59;;;;;;;3.60;3.03;;;17.60;99.90;;;;;;5110063;27;20213;-71
2023/08/01 01:45:27;;;;;;;3.33;3.03;;;17.50;99.90;;;;;;5106459;28;20202;-72
2023/08/01 01:47:54;;;;;;;4.50;3.43;;;17.40;99.90;;;;;;5106375;28;20206;-71
2023/08/01 01:50:25;;;;;;;4.37;3.73;;;17.30;99.90;;;;;;5119259;27;20307;-70
2023/08/01 01:52:54;;;;;;;3.97;3.63;;;17.40;99.90;;;;;;5112585;27;20194;-71
2023/08/01 01:55:22;;;;;;;3.83;3.53;;;17.30;99.90;;;;;;5106238;28;20242;-71
2023/08/01 01:57:49;;;;;;;3.53;3.20;;;17.30;99.90;;;;;;5106078;28;20202;-71
2023/08/01 02:00:16;;;;;;;4.10;3.70;;;17.30;99.90;;;;;;5107075;27;20246;-71
2023/08/01 02:02:43;;;;;;;3.83;3.53;;;17.30;99.90;;;;;;5126269;27;20217;-71
2023/08/01 02:05:10;;;;;;;3.97;3.57;;;17.40;99.90;;;;;;5126109;27;20675;-71
2023/08/01 02:07:37;;;;;;;3.77;3.47;;;17.50;99.90;;;;;;5126029;27;20320;-71
2023/08/01 02:10:04;;;;;;;4.00;3.63;;;17.60;99.90;;;;;;5126280;27;20799;-71
2023/08/01 02:12:34;;;;;;;4.23;3.30;;;17.70;99.90;;;;;;5116927;27;20257;-72
2023/08/01 02:15:01;;;;;;;3.93;3.53;;;17.60;99.90;;;;;;5105821;28;20214;-71
2023/08/01 02:17:28;;;;;;;5.83;3.90;;;17.60;99.90;;;;;;5109545;27;20671;-71
2023/08/01 02:19:55;;;;;;;4.10;3.27;;;17.60;99.90;;;;;;5125141;27;20676;-72
2023/08/01 02:22:22;;;;;;;3.53;3.20;;;17.70;99.90;;;;;;5125857;27;20659;-72
2023/08/01 02:24:49;;;;;;;3.30;3.10;;;17.80;99.90;;;;;;5126202;27;20202;-72
2023/08/01 02:27:16;;;;;;;3.47;3.17;;;17.90;99.90;;;;;;5125851;27;20250;-72
2023/08/01 02:29:44;;;;;;;3.37;3.17;;;17.70;99.90;;;;;;5123308;27;20235;-71
2023/08/01 02:32:11;;;;;;;3.47;3.17;;;17.60;99.90;;;;;;5123573;27;20201;-71
2023/08/01 02:34:38;;;;;;;3.37;3.07;;;17.80;99.90;;;;;;5124392;27;20209;-72
2023/08/01 02:37:05;;;;;;;3.30;3.10;;;17.80;99.90;;;;;;5124247;27;20320;-72
2023/08/01 02:39:32;;;;;;;3.73;3.47;;;17.70;99.90;;;;;;5140443;27;20269;-71
2023/08/01 02:41:59;;;;;;;3.93;3.60;;;17.70;99.90;;;;;;5126695;27;20776;-72
2023/08/01 02:44:26;;;;;;;4.63;3.70;;;17.50;99.90;;;;;;5124056;27;20768;-71
2023/08/01 02:46:55;;;;;;;5.53;3.90;;;17.50;99.90;;;;;;5124466;27;20265;-71
2023/08/01 02:49:22;;;;;;;3.53;3.23;;;17.50;99.90;;;;;;5116844;27;20277;-71
2023/08/01 02:51:48;;;;;;;3.60;3.30;;;17.60;99.90;;;;;;5103654;28;20202;-71
2023/08/01 02:54:15;;;;;;;3.97;3.57;;;17.60;99.90;;;;;;5122242;28;20301;-72
2023/08/01 02:56:46;;;;;;;4.43;3.47;;;17.60;99.90;;;;;;5123677;28;20258;-71
2023/08/01 02:59:13;;;;;;;4.53;3.50;;;17.60;99.90;;;;;;5124108;28;20232;-71
2023/08/01 03:01:41;;;;;;;4.87;3.50;;;17.70;99.90;;;;;;5109856;28;20202;-71
2023/08/01 03:04:11;;;;;;;5.20;3.30;;;17.60;99.90;;;;;;5107935;28;20298;-71
2023/08/01 03:06:38;;;;;;;3.80;3.50;;;17.60;99.90;;;;;;5124135;28;20198;-71
2023/08/01 03:09:07;;;;;;;3.97;3.23;;;17.60;99.90;;;;;;5125099;28;20779;-71
2023/08/01 03:11:34;;;;;;;3.60;3.30;;;17.40;99.90;;;;;;5125392;27;20216;-71
2023/08/01 03:14:01;;;;;;;4.73;3.77;;;17.50;99.90;;;;;;5125182;28;20296;-71
2023/08/01 03:16:28;;;;;;;3.63;3.33;;;17.50;99.90;;;;;;5113653;28;20288;-71
2023/08/01 03:18:55;;;;;;;4.03;3.73;;;17.50;99.90;;;;;;5108764;28;20224;-71
2023/08/01 03:21:24;;;;;;;3.77;3.47;;;17.50;99.90;;;;;;5126040;28;20205;-71
2023/08/01 03:23:51;;;;;;;3.47;3.17;;;17.50;99.90;;;;;;5125812;28;20205;-71
2023/08/01 03:26:18;;;;;;;3.87;3.57;;;17.40;99.90;;;;;;5125565;28;20955;-71
2023/08/01 03:28:45;;;;;;;3.30;3.10;;;17.40;99.90;;;;;;5125615;28;20305;-71
2023/08/01 03:31:12;;;;;;;3.27;3.07;;;17.40;99.90;;;;;;5125196;28;20204;-71
2023/08/01 03:33:39;;;;;;;3.67;3.37;;;17.50;99.90;;;;;;5125378;28;20731;-71
2023/08/01 03:36:06;;;;;;;4.53;3.10;;;17.40;99.90;;;;;;5124763;27;20240;-72
2023/08/01 03:38:34;;;;;;;3.47;3.17;;;17.40;99.90;;;;;;5124948;28;20213;-71
2023/08/01 03:41:01;;;;;;;3.43;3.10;;;17.40;99.90;;;;;;5127314;27;20755;-71
2023/08/01 03:43:28;;;;;;;4.43;3.13;;;17.40;99.90;;;;;;5111435;27;20296;-71
2023/08/01 03:45:55;;;;;;;4.03;3.23;;;17.40;99.90;;;;;;5108668;28;20332;-71
2023/08/01 03:48:22;;;;;;;3.57;3.27;;;17.40;99.90;;;;;;5108706;28;20289;-71
2023/08/01 03:50:49;;;;;;;3.67;3.20;;;17.50;99.90;;;;;;5128034;27;20365;-71
2023/08/01 03:53:16;;;;;;;3.77;3.40;;;17.50;99.90;;;;;;5128825;27;20302;-71
2023/08/01 03:55:45;;;;;;;3.80;3.40;;;17.60;99.90;;;;;;5129093;27;20208;-71
2023/08/01 03:58:13;;;;;;;4.80;3.20;;;17.60;99.90;;;;;;5129159;27;20210;-71
2023/08/01 04:00:40;;;;;;;3.47;3.13;;;17.60;99.90;;;;;;5128785;27;20325;-71
2023/08/01 04:03:07;;;;;;;3.63;3.33;;;17.60;99.90;;;;;;5128871;27;20293;-71
2023/08/01 04:05:34;;;;;;;3.70;3.40;;;17.70;99.90;;;;;;5128579;27;20758;-71
2023/08/01 04:08:01;;;;;;;2.90;2.70;;;17.70;99.90;;;;;;5128451;27;20743;-71
2023/08/01 04:10:27;;;;;;;4.90;3.10;;;17.70;99.90;;;;;;5128602;27;20312;-71
2023/08/01 04:12:56;;;;;;;3.57;3.27;;;17.70;99.90;;;;;;5128738;27;20229;-71
2023/08/01 04:15:23;;;;;;;3.97;3.03;;;17.70;99.90;;;;;;5128489;27;20208;-71
2023/08/01 04:17:49;;;;;;;4.20;3.50;;;17.70;99.90;;;;;;5128493;27;20222;-71
2023/08/01 04:20:16;;;;;;;2.90;2.60;;;17.80;99.90;;;;;;5143001;27;20299;-72
2023/08/01 04:22:43;;;;;;;3.10;2.90;;;17.80;99.90;;;;;;5148684;27;20669;-72
2023/08/01 04:25:10;;;;;;;3.53;2.90;;;17.80;99.90;;;;;;5148834;27;20213;-71
2023/08/01 04:27:37;;;;;;;2.80;2.57;;;17.70;99.90;;;;;;5149202;27;20251;-71
2023/08/01 04:30:07;;;;;;;3.17;2.97;;;17.70;99.90;;;;;;5148756;27;20260;-71
2023/08/01 04:32:33;;;;;;;3.27;2.70;;;17.70;99.90;;;;;;5107771;28;20293;-72
2023/08/01 04:35:00;;;;;;;3.07;2.77;;;17.70;99.90;;;;;;5107850;28;20198;-71
2023/08/01 04:37:27;;;;;;;3.03;2.70;;;17.70;99.90;;;;;;5107598;28;20210;-71
2023/08/01 04:39:54;;;;;;;3.83;2.60;;;17.70;99.90;;;;;;5127133;27;20647;-71
2023/08/01 04:42:21;;;;;;;2.97;2.67;;;17.70;99.90;;;;;;5127887;27;20308;-71
2023/08/01 04:44:48;;;;;;;3.67;2.60;;;17.70;99.90;;;;;;5127829;27;20304;-71
2023/08/01 04:47:16;;;;;;;2.73;2.53;;;17.80;99.90;;;;;;5127683;27;20210;-71
2023/08/01 04:49:43;;;;;;;3.07;2.67;;;17.80;99.90;;;;;;5137831;27;20343;-71
2023/08/01 04:52:10;;;;;;;2.87;2.53;;;17.80;99.90;;;;;;5148164;27;20291;-71
2023/08/01 04:54:37;;;;;;;2.50;2.30;;;17.80;99.90;;;;;;5148609;27;20208;-71
2023/08/01 04:57:04;;;;;;;3.23;2.60;;;17.80;99.90;;;;;;5149023;27;20296;-71
2023/08/01 04:59:31;;;;;;;2.67;2.47;;;17.80;99.90;;;;;;5148747;27;20246;-71
2023/08/01 05:01:58;;;;;;;2.60;2.40;;;17.90;99.90;;;;;;5149300;27;20211;-71
2023/08/01 05:04:26;;;;;;;2.50;2.20;;;18.00;99.90;;;;;;5145422;27;20209;-71
2023/08/01 05:06:53;;;;;;;2.47;2.27;;;17.90;99.90;;;;;;5127069;27;20205;-71
2023/08/01 05:09:20;;;;;;;3.03;2.37;;;17.90;99.90;;;;;;5127525;27;20320;-72
2023/08/01 05:11:47;;;;;;;2.53;2.33;;;17.90;99.90;;;;;;5131553;27;20245;-71
2023/08/01 05:14:14;;;;;;;2.77;2.57;;;18.00;99.90;;;;;;5148229;27;20295;-72
2023/08/01 05:16:41;;;;;;;3.10;2.60;;;18.00;99.90;;;;;;5134273;27;20300;-71
2023/08/01 05:19:07;;;;;;;2.40;2.20;;;18.00;99.90;;;;;;5127395;27;20255;-71
2023/08/01 05:21:36;;;;;;;2.40;2.30;;;18.10;99.90;;;;;;5127084;27;20209;-71
2023/08/01 05:24:03;;;;;;;3.03;2.13;;;18.20;99.90;;;;;;5127044;27;20296;-71
2023/08/01 05:26:30;;;;;;;2.53;2.33;;;18.20;99.90;;;;;;5125882;27;20208;-71
2023/08/01 05:28:57;;;;;;;2.60;2.40;;;18.20;99.90;;;;;;5106935;28;20297;-72
2023/08/01 05:31:23;;;;;;;2.60;2.40;;;18.20;99.90;;;;;;5106757;28;20226;-71
2023/08/01 05:33:50;;;;;;;2.47;2.37;;;18.20;99.90;;;;;;5106691;28;20297;-71
2023/08/01 05:36:17;;;;;;;2.50;2.17;;;18.20;99.90;;;;;;5106512;28;20298;-71
2023/08/01 05:38:45;;;;;;;2.77;2.57;;;18.20;99.90;;;;;;5106302;28;20209;-71
2023/08/01 05:41:12;;;;;;;2.43;2.33;;;18.30;99.90;;;;;;5106495;28;20212;-71
2023/08/01 05:43:39;;;;;;;2.40;2.30;;;18.20;99.90;;;;;;5106826;28;20214;-71
2023/08/01 05:46:06;;;;;;;2.63;2.43;;;18.20;99.90;;;;;;5106423;28;20577;-71
2023/08/01 05:48:33;;;;;;;2.60;2.40;;;18.30;99.90;;;;;;5106317;27;20292;-72
2023/08/01 05:51:00;;;;;;;2.57;2.13;;;18.30;99.90;;;;;;5126668;27;20229;-72
2023/08/01 05:53:27;;;;;;;3.87;2.50;;;18.30;99.90;;;;;;5126467;27;20217;-71
2023/08/01 05:55:55;;;;;;;3.67;2.70;;;18.20;99.90;;;;;;5126733;27;20201;-71
2023/08/01 05:58:22;;;;;;;2.60;2.40;;;18.20;99.90;;;;;;5126330;27;20728;-71
2023/08/01 06:00:49;;;;;;;2.87;2.67;;;18.30;99.90;;;;;;5126365;27;20292;-72
2023/08/01 06:03:16;;;;;;;2.77;2.57;;;18.30;99.90;;;;;;5125477;27;20312;-71
2023/08/01 06:05:43;;;;;;;2.97;2.50;;;18.20;99.90;;;;;;5126506;27;20309;-72
2023/08/01 06:08:10;;;;;;;2.93;2.73;;;18.20;99.90;;;;;;5126482;27;20210;-72
2023/08/01 06:10:37;;;;;;;2.77;2.57;;;18.20;99.90;;;;;;5126382;27;20229;-71
2023/08/01 06:13:05;;;;;;;2.77;2.53;;;18.20;99.90;;;;;;5126516;27;20232;-71
2023/08/01 06:15:32;;;;;;;3.27;3.07;;;18.20;99.90;;;;;;5126607;27;20208;-71
2023/08/01 06:17:59;;;;;;;3.70;3.00;;;18.20;99.90;;;;;;5125981;27;20583;-71
2023/08/01 06:20:26;;;;;;;4.03;2.50;;;18.30;99.90;;;;;;5110090;27;20217;-71
2023/08/01 06:22:53;;;;;;;3.00;2.67;;;18.20;99.90;;;;;;5105585;27;20644;-72
2023/08/01 06:25:20;;;;;;;2.93;2.60;;;18.10;99.90;;;;;;5105476;28;20300;-71
2023/08/01 06:27:46;;;;;;;3.13;2.93;;;18.20;99.90;;;;;;5105626;28;20316;-71
2023/08/01 06:30:15;;;;;;;2.37;2.27;;;18.30;99.90;;;;;;5106158;27;20854;-71
2023/08/01 06:32:42;;;;;;;2.83;2.63;;;18.20;99.90;;;;;;5125689;27;20206;-72
2023/08/01 06:35:09;;;;;;;2.97;2.70;;;18.20;99.90;;;;;;5125348;27;20296;-71
2023/08/01 06:37:36;;;;;;;2.67;2.47;;;18.20;99.90;;;;;;5125315;27;20642;-71
2023/08/01 06:40:04;;;;;;;2.87;2.67;;;18.20;99.90;;;;;;5125841;27;20205;-71
2023/08/01 06:42:31;;;;;;;2.80;2.60;;;18.30;99.90;;;;;;5126227;27;20292;-71
2023/08/01 06:44:57;;;;;;;3.10;2.80;;;18.20;99.90;;;;;;5126240;27;20209;-72
2023/08/01 06:47:26;;;;;;;2.73;2.60;;;18.20;99.90;;;;;;5126416;27;20296;-72
2023/08/01 06:49:53;;;;;;;2.80;2.60;;;18.30;99.90;;;;;;5114757;27;20337;-71
2023/08/01 06:52:20;;;;;;;2.40;2.30;;;18.20;99.90;;;;;;5105458;28;20206;-71
2023/08/01 06:54:47;;;;;;;2.70;2.50;;;18.20;99.90;;;;;;5105046;28;20216;-71
2023/08/01 06:57:14;;;;;;;2.50;2.40;;;18.30;99.90;;;;;;5104627;28;20296;-72
2023/08/01 06:59:40;;;;;;;2.30;1.97;;;18.30;99.90;;;;;;5104687;28;20238;-71
2023/08/01 07:02:08;;;;;;;2.30;2.20;;;18.30;99.90;;;;;;5104860;28;20210;-72
2023/08/01 07:04:37;;;;;;;2.63;2.50;;;18.40;99.90;;;;;;5104957;28;20210;-71
2023/08/01 07:07:04;;;;;;;2.83;2.50;;;18.40;99.90;;;;;;5104947;28;20209;-72
2023/08/01 07:09:31;;;;;;;2.30;2.20;;;18.50;99.90;;;;;;5104985;28;20340;-71
2023/08/01 07:11:58;;;;;;;2.50;2.30;;;18.60;99.90;;;;;;5105065;28;20338;-72
2023/08/01 07:14:25;;;;;;;4.83;3.13;;;18.60;99.90;;;;;;5106632;28;20298;-71
2023/08/01 07:16:52;;;;;;;2.87;2.67;;;18.60;99.90;;;;;;5109482;28;20237;-71
2023/08/01 07:19:19;;;;;;;2.77;2.57;;;18.70;99.90;;;;;;5112091;27;20208;-71
2023/08/01 07:21:48;;;;;;;2.67;2.43;;;18.80;99.90;;;;;;5109453;28;20721;-71
2023/08/01 07:24:15;;;;;;;2.20;2.10;;;18.90;99.90;;;;;;5109184;28;20294;-71
2023/08/01 07:26:42;;;;;;;2.43;2.20;;;18.80;99.90;;;;;;5108752;27;20864;-71
2023/08/01 07:29:11;;;;;;;2.07;1.97;;;18.70;99.90;;;;;;5109168;28;20616;-72
2023/08/01 07:31:38;;;;;;;2.57;2.37;;;18.90;99.90;;;;;;5108804;28;20410;-71
2023/08/01 07:34:05;;;;;;;2.90;2.37;;;19.00;99.90;;;;;;5108636;28;20264;-71
2023/08/01 07:36:32;;;;;;;2.23;2.13;;;19.10;99.90;;;;;;5109080;28;20864;-71
2023/08/01 07:39:00;;;;;;;2.13;2.03;;;19.20;99.90;;;;;;5108202;28;20209;-72
2023/08/01 07:41:27;;;;;;;2.37;2.17;;;19.30;99.90;;;;;;5108525;28;20210;-71
2023/08/01 07:43:54;;;;;;;2.23;1.90;;;19.40;99.90;;;;;;5108826;28;20753;-71
2023/08/01 07:46:20;;;;;;;2.47;1.97;;;19.50;99.90;;;;;;5108253;28;20678;-71
2023/08/01 07:48:48;;;;;;;2.03;1.93;;;19.60;99.90;;;;;;5108478;28;20230;-71
2023/08/01 07:51:15;;;;;;;2.50;2.30;;;19.60;99.90;;;;;;5108654;28;20573;-71
2023/08/01 07:53:43;;;;;;;2.67;2.30;;;19.50;99.90;;;;;;5108525;28;20307;-71
2023/08/01 07:56:11;;;;;;;2.30;2.20;;;19.50;99.90;;;;;;5108665;28;20232;-71
2023/08/01 07:58:38;;;;;;;1.77;1.67;;;19.60;99.90;;;;;;5108652;28;20313;-71
2023/08/01 08:01:05;;;;;;;2.93;2.03;;;19.60;99.90;;;;;;5108767;28;20294;-71
2023/08/01 08:03:32;;;;;;;2.30;1.87;;;19.60;99.90;;;;;;5108886;28;20296;-71
2023/08/01 08:05:59;;;;;;;2.10;2.00;;;19.60;99.90;;;;;;5108335;28;20293;-71
2023/08/01 08:08:27;;;;;;;2.10;1.90;;;19.70;99.90;;;;;;5108549;28;20202;-71
2023/08/01 08:10:55;;;;;;;2.30;2.10;;;19.70;99.90;;;;;;5108330;28;20226;-71
2023/08/01 08:13:23;;;;;;;4.97;1.93;;;19.60;99.90;;;;;;5125648;27;20225;-71
2023/08/01 08:15:51;;;;;;;1.87;1.73;;;19.60;99.90;;;;;;5128026;27;20296;-71
2023/08/01 08:18:18;;;;;;;1.93;1.77;;;19.50;99.90;;;;;;5128578;27;20304;-71
2023/08/01 08:20:46;;;;;;;1.80;1.70;;;19.50;99.90;;;;;;5147872;27;20217;-71
2023/08/01 08:23:14;;;;;;;2.43;1.70;;;19.50;99.90;;;;;;5143935;27;20213;-71
2023/08/01 08:25:41;;;;;;;2.07;1.90;;;19.50;99.90;;;;;;5127794;27;20746;-72
2023/08/01 08:28:09;;;;;;;1.80;1.70;;;19.50;99.90;;;;;;5128388;27;20328;-71
2023/08/01 08:30:37;;;;;;;1.60;1.50;;;19.50;99.90;;;;;;5128902;27;20235;-71
2023/08/01 08:33:06;;;;;;;1.67;1.50;;;19.60;99.90;;;;;;5128494;27;20300;-71
2023/08/01 08:35:33;;;;;;;1.60;1.50;;;19.70;99.90;;;;;;5129054;27;20197;-71
2023/08/01 08:38:02;;;;;;;1.87;1.77;;;19.70;99.90;;;;;;5128510;27;20197;-71
2023/08/01 08:40:29;;;;;;;1.40;1.40;;;19.70;99.90;;;;;;5128838;27;20259;-71
2023/08/01 08:42:57;;;;;;;1.30;1.30;;;19.80;99.90;;;;;;5128533;27;20283;-71
2023/08/01 08:45:24;;;;;;;1.37;1.37;;;19.80;99.90;;;;;;5128796;27;20258;-71
2023/08/01 08:48:00;;;;;;;1.33;1.30;;;19.80;99.90;;;;;;5128757;27;20301;-71
2023/08/01 08:50:27;;;;;;;2.23;1.10;;;19.80;99.90;;;;;;5112235;27;20237;-71
2023/08/01 08:52:54;;;;;;;2.67;1.30;;;19.80;99.90;;;;;;5107224;28;20212;-71
2023/08/01 08:55:22;;;;;;;2.00;1.27;;;19.80;99.90;;;;;;5107409;28;20234;-71
2023/08/01 08:57:52;;;;;;;2.50;1.60;;;19.80;99.90;;;;;;5107727;28;20214;-72
2023/08/01 09:00:19;;;;;;;1.00;1.00;;;19.90;99.90;;;;;;5107099;28;20238;-71
2023/08/01 09:02:46;;;;;;;1.87;1.40;;;19.90;99.90;;;;;;5107364;28;20579;-71
2023/08/01 09:05:14;;;;;;;1.43;1.33;;;20.00;99.90;;;;;;5107256;28;20234;-71
2023/08/01 09:07:47;;;;;;;1.77;1.37;;;20.10;99.90;;;;;;5106875;28;20297;-71
2023/08/01 09:10:14;;;;;;;0.80;0.80;;;20.20;99.90;;;;;;5107096;28;20190;-71
2023/08/01 09:12:41;;;;;;;1.13;1.00;;;20.30;99.90;;;;;;5129926;27;20234;-71
2023/08/01 09:15:11;;;;;;;0.87;0.80;;;20.40;99.90;;;;;;5148189;27;20224;-71
2023/08/01 09:17:49;;;;;;;1.60;0.90;;;20.30;99.90;;;;;;5148140;27;20299;-71
2023/08/01 09:20:17;;;;;;;0.90;0.90;;;20.30;99.90;;;;;;5144736;27;20667;-71
2023/08/01 09:22:45;;;;;;;0.97;0.97;;;20.30;99.90;;;;;;5148076;27;20211;-71
2023/08/01 09:25:13;;;;;;;0.60;0.60;;;20.20;99.90;;;;;;5148000;27;20201;-71
2023/08/01 09:27:40;;;;;;;0.80;0.80;;;20.20;99.90;;;;;;5147930;27;20689;-71
2023/08/01 09:30:11;;;;;;;1.03;0.70;;;20.00;99.90;;;;;;5147790;27;20212;-71
2023/08/01 09:32:38;;;;;;;1.57;0.80;;;20.00;99.90;;;;;;5147844;27;20220;-71
2023/08/01 09:35:05;;;;;;;0.80;0.80;;;19.90;99.90;;;;;;5147732;27;20299;-71
2023/08/01 09:37:44;;;;;;;1.67;0.90;;;19.70;99.90;;;;;;5147410;27;20209;-71
2023/08/01 09:40:11;;;;;;;0.90;0.90;;;19.70;99.90;;;;;;5147735;27;20211;-71
2023/08/01 09:42:39;;;;;;;0.90;0.90;;;19.60;99.90;;;;;;5148044;27;20285;-72
2023/08/01 09:45:13;;;;;;;0.80;0.80;;;19.50;99.90;;;;;;5148000;27;20216;-71
2023/08/01 09:47:40;;;;;;;0.90;0.90;;;19.60;99.90;;;;;;5148056;27;20201;-71
2023/08/01 09:50:08;;;;;;;0.90;0.90;;;19.70;99.90;;;;;;5134159;27;20261;-71
2023/08/01 09:52:35;;;;;;;1.00;1.00;;;19.80;99.90;;;;;;5126473;27;20922;-71
2023/08/01 09:55:03;;;;;;;0.80;0.80;;;19.80;99.90;;;;;;5126631;27;20234;-71
2023/08/01 09:57:32;;;;;;;2.40;1.00;;;19.80;99.90;;;;;;5126353;27;20215;-71
2023/08/01 10:00:10;;;;;;;0.80;0.80;;;19.80;99.90;;;;;;5102716;27;20555;-71
2023/08/01 10:02:39;;;;;;;1.00;0.70;;;19.80;99.90;;;;;;5102770;28;20842;-71
2023/08/01 10:05:08;;;;;;;1.17;0.80;;;19.70;99.90;;;;;;5102366;28;20242;-71
2023/08/01 10:07:36;;;;;;;0.80;0.80;;;19.80;99.90;;;;;;5102123;28;20213;-72
2023/08/01 10:10:03;;;;;;;0.50;0.50;;;19.70;99.90;;;;;;5081722;28;20864;-71
2023/08/01 10:12:31;;;;;;;1.13;0.80;;;19.70;99.90;;;;;;5081747;28;20218;-71
2023/08/01 10:14:59;;;;;;;0.80;0.53;;;19.50;99.90;;;;;;5081832;28;20309;-71
2023/08/01 10:17:29;;;;;;;1.07;0.90;;;19.40;99.90;;;;;;5101188;28;20210;-71
2023/08/01 10:19:58;;;;;;;0.77;0.77;;;19.20;99.90;;;;;;5102484;28;20717;-72
2023/08/01 10:22:26;;;;;;;1.27;1.10;;;19.10;99.90;;;;;;5102036;28;20210;-71
2023/08/01 10:24:54;;;;;;;1.27;0.77;;;18.90;99.90;;;;;;5102009;28;20212;-71
2023/08/01 10:27:23;;;;;;;1.00;1.00;;;18.70;99.90;;;;;;5101688;28;20202;-71
2023/08/01 10:29:58;;;;;;;1.00;1.00;;;18.60;99.90;;;;;;5101825;28;20210;-71
2023/08/01 10:32:32;;;;;;;0.90;0.90;;;18.50;99.90;;;;;;5102018;28;20289;-71
2023/08/01 10:35:00;;;;;;;1.10;1.03;;;18.30;99.90;;;;;;5102160;28;20621;-71
2023/08/01 10:37:27;;;;;;;0.90;0.90;;;18.20;99.90;;;;;;5102374;28;20221;-71
2023/08/01 10:40:01;;;;;;;3.00;0.90;;;18.20;99.90;;;;;;5102010;28;20690;-71
2023/08/01 10:42:39;;;;;;;0.93;0.93;;;18.10;99.90;;;;;;5101809;28;20295;-71
2023/08/01 10:45:07;;;;;;;2.03;1.00;;;18.10;99.90;;;;;;5101474;28;20199;-72
2023/08/01 10:47:36;;;;;;;0.80;0.80;;;18.10;99.90;;;;;;5101619;28;20870;-71
2023/08/01 10:50:03;;;;;;;1.13;1.00;;;18.00;99.90;;;;;;5080745;28;20225;-71
2023/08/01 10:52:30;;;;;;;1.07;0.90;;;18.00;99.90;;;;;;5081097;28;20663;-71
2023/08/01 10:54:59;;;;;;;0.87;0.87;;;17.90;99.90;;;;;;5081292;28;20234;-71
2023/08/01 10:57:27;;;;;;;0.80;0.80;;;18.00;99.90;;;;;;5080690;28;20242;-71
2023/08/01 10:59:55;;;;;;;0.67;0.60;;;17.90;99.90;;;;;;5080991;28;20612;-71
2023/08/01 11:02:23;;;;;;;0.93;0.93;;;17.90;99.90;;;;;;5081271;28;20261;-71
2023/08/01 11:04:59;;;;;;;1.00;0.93;;;18.00;99.90;;;;;;5081033;28;20725;-71
2023/08/01 11:07:26;;;;;;;0.80;0.80;;;18.00;99.90;;;;;;5081190;28;20315;-71
2023/08/01 11:10:07;;;;;;;0.90;0.90;;;18.10;99.90;;;;;;5076963;28;20207;-71
2023/08/01 11:12:36;;;;;;;3.03;1.13;;;18.10;99.90;;;;;;5067739;28;20575;-71
2023/08/01 11:15:05;;;;;;;1.27;1.17;;;18.20;99.90;;;;;;5067580;28;20218;-71
2023/08/01 11:17:36;;;;;;;1.43;1.20;;;18.30;99.90;;;;;;5047669;28;20961;-71
2023/08/01 11:20:08;;;;;;;3.67;1.97;;;18.40;99.90;;;;;;5059971;28;20613;-71
2023/08/01 11:22:35;;;;;;;2.30;2.00;;;18.30;99.90;;;;;;5067454;28;20203;-71
2023/08/01 11:25:03;;;;;;;2.47;2.30;;;18.30;99.90;;;;;;5067180;28;20665;-71
2023/08/01 11:27:30;;;;;;;3.83;2.40;;;18.40;99.90;;;;;;5067590;28;20583;-71
2023/08/01 11:29:57;;;;;;;2.73;2.53;;;18.50;99.90;;;;;;5067500;28;20666;-71
2023/08/01 11:32:34;;;;;;;3.47;2.50;;;18.50;99.90;;;;;;5067162;28;20207;-71
2023/08/01 11:35:02;;;;;;;4.00;3.17;;;18.60;99.90;;;;;;5067238;28;20235;-71
2023/08/01 11:37:31;;;;;;;2.87;2.43;;;18.50;99.90;;;;;;5066929;28;20716;-71
2023/08/01 11:39:59;;;;;;;3.47;2.73;;;18.60;99.90;;;;;;5067536;28;20258;-71
2023/08/01 11:42:33;;;;;;;4.77;2.90;;;18.70;99.90;;;;;;5067095;28;20243;-71
2023/08/01 11:45:09;;;;;;;3.60;2.93;;;18.80;99.90;;;;;;5067330;28;20283;-71
2023/08/01 11:47:36;;;;;;;4.97;2.80;;;18.90;99.90;;;;;;5067190;28;20187;-71
2023/08/01 11:50:04;;;;;;;2.83;2.63;;;18.90;99.90;;;;;;5067130;28;20781;-71
2023/08/01 11:52:32;;;;;;;3.00;2.77;;;18.80;99.90;;;;;;5067093;28;20203;-71
2023/08/01 11:54:59;;;;;;;4.10;3.10;;;19.00;99.90;;;;;;5066600;28;20208;-71
2023/08/01 11:57:26;;;;;;;3.00;2.70;;;19.10;99.90;;;;;;5066345;28;20207;-71
2023/08/01 11:59:55;;;;;;;2.60;2.40;;;19.20;99.90;;;;;;5066417;28;20250;-71
2023/08/01 12:02:23;;;;;;;2.87;2.53;;;19.20;99.90;;;;;;5066195;28;20269;-71
2023/08/01 12:04:51;;;;;;;3.00;2.80;;;19.30;99.90;;;;;;5066401;28;20219;-72
2023/08/01 12:07:18;;;;;;;3.60;2.67;;;19.50;99.90;;;;;;5066476;28;20294;-71
2023/08/01 12:09:56;;;;;;;3.10;2.80;;;19.50;99.90;;;;;;5066276;28;20277;-72
2023/08/01 12:12:23;;;;;;;3.40;3.10;;;19.30;99.90;;;;;;5066119;28;20202;-72
2023/08/01 12:14:50;;;;;;;3.27;2.90;;;19.30;99.90;;;;;;5066471;28;20745;-71
2023/08/01 12:17:17;;;;;;;3.80;3.13;;;19.50;99.90;;;;;;5066147;28;20207;-71
2023/08/01 12:19:47;;;;;;;4.93;3.10;;;19.20;99.90;;;;;;5056271;28;20244;-72
2023/08/01 12:22:23;;;;;;;4.73;3.03;;;19.20;99.90;;;;;;5045287;28;20193;-71
2023/08/01 12:24:51;;;;;;;4.27;3.43;;;19.20;99.90;;;;;;5046280;28;20948;-71
2023/08/01 12:27:17;;;;;;;4.97;3.27;;;19.10;99.90;;;;;;5046336;28;20242;-71
2023/08/01 12:29:44;;;;;;;3.53;3.07;;;19.30;99.90;;;;;;5046305;28;20737;-71
2023/08/01 12:32:11;;;;;;;5.20;3.00;;;19.40;99.90;;;;;;5046458;28;20204;-72
2023/08/01 12:34:38;;;;;;;3.63;3.30;;;19.50;99.90;;;;;;5046097;28;20304;-71
2023/08/01 12:37:06;;;;;;;3.30;3.00;;;19.60;99.90;;;;;;5046395;28;20218;-71
2023/08/01 12:39:33;;;;;;;3.43;3.03;;;19.70;99.90;;;;;;5046239;28;20224;-71
2023/08/01 12:42:02;;;;;;;5.30;3.27;;;19.60;99.90;;;;;;5045608;28;20783;-71
2023/08/01 12:44:29;;;;;;;3.77;3.20;;;19.50;99.90;;;;;;5046140;28;20214;-71
2023/08/01 12:46:56;;;;;;;3.10;2.90;;;19.40;99.90;;;;;;5046026;28;20210;-71
2023/08/01 12:49:23;;;;;;;4.60;3.17;;;19.50;99.90;;;;;;5052559;28;20238;-71
2023/08/01 12:51:50;;;;;;;3.27;2.93;;;19.50;99.90;;;;;;5066058;28;20203;-71